Flight Track Log - Related Links

Times and Time Zones

All times are in EDT time to prevent confusion due to time zone crossing. See the N1483L flight status page for this flight to view local times or setup timezone preferences in your user account.

Time Position Orientation Groundspeed Altitude Reporting Facility
EDT Latitude Longitude Course Direction KTS MPH feet Rate Location/Type
Thu 12:36:46 PM 37.5167 -122.2667 122° Southeast 75 86 700  Level Northern Cal TRACON
Thu 12:37:40 PM 37.5167 -122.2500 90° East 105 121 1,100 279 Climbing Northern Cal TRACON
Thu 12:38:12 PM 37.5153 -122.2331 96° East 103 119 1,100 387 Level Oakland Center
Thu 12:39:13 PM 37.4958 -122.2078 134° Southeast 102 117 1,700 639 Climbing Oakland Center
Thu 12:40:14 PM 37.4739 -122.1806 135° Southeast 97 112 2,400 585 Climbing Oakland Center
Thu 12:41:16 PM 37.4553 -122.1567 134° Southeast 96 110 2,900 244 Climbing Oakland Center
Thu 12:42:00 PM 37.5989 -122.0222 122° Southeast  Level Estimated
Thu 12:42:17 PM 37.4661 -122.1108 73° East 122 140 2,900  Level Oakland Center
Thu 12:42:40 PM 37.4667 -122.0833 89° East 139 160 3,100 145 Climbing Northern Cal TRACON
Thu 12:43:40 PM 37.4833 -122.0500 58° Northeast 142 163 3,100  Level Northern Cal TRACON
Thu 12:44:40 PM 37.5000 -122.0000 67° East 134 154 3,100 150 Level Northern Cal TRACON
Thu 12:45:40 PM 37.5000 -121.9667 90° East 131 151 3,400 579 Climbing Northern Cal TRACON
Thu 12:46:34 PM 37.4833 -121.9333 122° Southeast 95 109 4,200 737 Climbing Northern Cal TRACON
Thu 12:47:34 PM 37.4833 -121.9000 90° East 97 112 4,800 450 Climbing Northern Cal TRACON
Thu 12:48:34 PM 37.4833 -121.8833 90° East 108 124 5,100 150 Climbing Northern Cal TRACON
Thu 12:49:34 PM 37.5167 -121.8500 38° Northeast 132 152 5,100  Level Northern Cal TRACON
Thu 12:50:34 PM 37.5500 -121.8167 38° Northeast 134 154 5,100  Level Northern Cal TRACON
Thu 12:51:34 PM 37.5667 -121.7833 58° Northeast 136 157 5,100  Level Northern Cal TRACON
Thu 12:52:34 PM 37.5833 -121.7333 67° East 134 154 5,100  Level Northern Cal TRACON
Thu 12:53:29 PM 37.6000 -121.7000 58° Northeast 139 160 5,100 -52 Level Northern Cal TRACON
Thu 12:54:29 PM 37.6167 -121.6667 58° Northeast 138 159 5,000 -50 Descending Northern Cal TRACON
Thu 12:55:29 PM 37.6333 -121.6167 67° East 140 161 5,000  Level Northern Cal TRACON
Thu 12:56:29 PM 37.6500 -121.5667 67° East 139 160 5,000  Level Northern Cal TRACON
Thu 12:57:23 PM 37.6667 -121.5333 58° Northeast 137 158 5,000  Level Northern Cal TRACON
Thu 12:58:23 PM 37.6833 -121.5000 58° Northeast 140 161 5,000  Level Northern Cal TRACON
Thu 12:59:23 PM 37.7167 -121.4500 50° Northeast 139 160 5,000  Level Northern Cal TRACON
Thu 01:00:23 PM 37.7333 -121.4167 58° Northeast 139 160 5,000  Level Northern Cal TRACON
Thu 01:01:23 PM 37.7500 -121.3667 67° East 140 161 5,000  Level Northern Cal TRACON
Thu 01:02:23 PM 37.7667 -121.3167 67° East 139 160 5,000  Level Northern Cal TRACON
Thu 01:03:23 PM 37.7833 -121.2833 58° Northeast 140 161 5,000  Level Northern Cal TRACON
Thu 01:04:29 PM 37.8000 -121.2333 67° East 140 161 5,000 -350 Level Northern Cal TRACON
Thu 01:05:23 PM 37.7833 -121.2000 122° Southeast 152 175 4,300 -789 Descending Northern Cal TRACON
Thu 01:06:23 PM 37.7667 -121.1500 113° Southeast 146 168 3,500 -750 Descending Northern Cal TRACON
Thu 01:07:23 PM 37.7667 -121.1167 90° East 126 145 2,800 -650 Descending Northern Cal TRACON
Thu 01:08:23 PM 37.8000 -121.0833 38° Northeast 116 133 2,200 -400 Descending Northern Cal TRACON
Thu 01:09:23 PM 37.8167 -121.0500 58° Northeast 113 130 2,000 -100 Descending Northern Cal TRACON
Thu 01:10:23 PM 37.8333 -121.0333 38° Northeast 114 131 2,000  Level Northern Cal TRACON
Thu 01:11:23 PM 37.8333 -121.0000 90° East 126 145 2,000  Level Northern Cal TRACON
Thu 01:12:23 PM 37.8167 -121.0167 218° Southwest 110 127 2,000  Level Northern Cal TRACON
Thu 01:13:23 PM 37.7833 -121.0500 218° Southwest 114 131 2,000  Level Northern Cal TRACON
Thu 01:14:23 PM 37.8000 -121.0833 302° West 107 123 2,000  Level Northern Cal TRACON
Thu 01:15:23 PM 37.8167 -121.1167 302° West 103 119 2,000 -150 Level Northern Cal TRACON
Thu 01:16:23 PM 37.8333 -121.1333 322° Northwest 106 122 1,700 -450 Descending Northern Cal TRACON
Thu 01:17:23 PM 37.8500 -121.1667 302° West 92 106 1,100 -500 Descending Northern Cal TRACON
Thu 01:18:23 PM 37.8667 -121.1833 322° Northwest 77 89 700 -400 Descending Northern Cal TRACON

Login

Don't have an account? Register now (free) for customized features, flight alerts, and more!